Portada
METAR-TAF:

METAR-TAF

Aeroports :

Burayda, Aràbia Saudita

latitud: 26-18N, longitud: 043-46E, altitud: 648 m

Observació

L'informe es va fer fa 45 minuts, a les 02:00 UTC
Vent 4 kt del Oest/Sud-Oest
Temperatura 30°C
Humitat 33%
Pressió 1010 hPa
Visibilitat 10 km o més
Escasses núvols a una alçada de 4000 ft

METAR: OEGS 210200Z 25004KT 9999 FEW040 30/12 Q1010

Hora: 05:45 (02:45 UTC)

Pronòstic

L'informe es va fer fa 3 hores i 45 minuts, a les 23:00 UTC
Pronòstic vàlid del 21 a les 00 UTC al 22 a les 06 UTC
Vent 3 kt amb direcció variable
Visibilitat 10 km o més
Escasses núvols a una alçada de 4000 ft
Evolucionant progressivament
l' 21 a les 08 UTC al 21 a les 10 UTC
Vent 13 kt del Est/Nord-Est

TAF: OEGS 202300Z 2100/2206 VRB03KT 9999 FEW040 BECMG 2108/2110 07013KT

Observacions i pronòstics meteorològics de més de 4000 aeroports (METAR i TAF).

Les estacions disponibles són els punts grocs i vermells al mapa.

Posi el ratolí al punt desitjat per veure el nom de l'estació.

Feu clic per veure les observacions i els pronòstics meteorològics.

Per canviar el mapa: feu clic els botons verds amb una creu de color negre per apropar; al botó verd amb un guió per allunyar la imatge; o en les fletxes verdes per a mapes adjacents.


METAR-TAF: